BID weather

Block Island State Airport
Block Island, Rhode Island, United States

Public forecast

Using degrees Fahrenheit for public forecast. Weather courtesy of forecast.io.

Current aviation weather report (METAR) for Block Island State Airport

Retrieved 2019/12/11 13:29 UTC (10 minutes ago):

KBID 111329Z AUTO 34014G19KT 1/4SM SN FZFG OVC005 M01/M02 A3026 RMK AO2 CIG 003V008 P0001 FZRANO

Closest aviation forecast (TAF) to Block Island State Airport

Closest forecast is Groton New London Airport, 23.2 nm (43.0 km) WNW. Retrieved 2019/12/11 12:30 UTC (1 hour ago):

TAF KGON 111129Z 1112/1212 34008KT 2SM -SN BR OVC008 TEMPO 1112/1114 1SM -SN BR BKN006 FM111600 32007KT 6SM BR SCT008 BKN010 FM112000 29007KT P6SM SCT030 FM120200 29011KT P6SM FEW030 FM120800 32009KT P6SM FEW250